Windrose Of Amsterda — 9HB4728 — position and weather

sailwx.info

Track history (hours):
 
Tides and Currents Weather Stations Pressure Air Temp Water Temp Dewpoint Dewpoint Depression Visibility Wind Speed Wind Dir Waves Ship Positions

Windrose Of Amsterda

Last reported at 2017-Nov-16 23:48 UTC. Time now 2017-Nov-24 03:49 UTC.
Position N 27°44' W 015°09'.

Length 47 m; draft 4.3 m.

Type: Sailing vessel. MMSI: 249270000.

Date/timePositionNaut miles runAvg speedWind from/ knotsBaromVisibWave heightAir tempDewpointWater temp
2017-Nov-16 23:48N 27°44' W 015°09'3 8.0
2017-Nov-16 23:29N 27°45' W 015°06'4 8.2
2017-Nov-16 22:59N 27°47' W 015°02'5 8.4
2017-Nov-16 22:25N 27°51' W 014°59'4 8.6
2017-Nov-16 22:00N 27°54' W 014°57'4 8.8
2017-Nov-16 21:30N 27°57' W 014°54'4 8.8
2017-Nov-16 21:00N 28°01' W 014°51'4 8.7
2017-Nov-16 20:30N 28°04' W 014°48'4 8.5
2017-Nov-16 20:00N 28°07' W 014°45'4 9.0
2017-Nov-16 19:30N 28°11' W 014°41'4 8.7
2017-Nov-16 19:00N 28°14' W 014°38'4 8.5
2017-Nov-16 18:30N 28°17' W 014°35'5 8.5
2017-Nov-16 17:57N 28°21' W 014°31'5 7.5
2017-Nov-16 17:18N 28°24' W 014°27'2 7.9
2017-Nov-16 17:00N 28°26' W 014°25'39 8.0
2017-Nov-16 12:10N 28°49' W 013°50'1 3.0
2017-Nov-16 11:53N 28°49' W 013°49'3 9.1
2017-Nov-16 11:30N 28°50' W 013°46'4 0.1
2017-Nov-15 01:13N 28°54' W 013°43'3 9.9
2017-Nov-15 00:53N 28°51' W 013°45'4 9.8
2017-Nov-15 00:26N 28°47' W 013°46'4 8.8
2017-Nov-15 00:00N 28°44' W 013°49'1 0.0
2017-Nov-14 12:54N 28°44' W 013°49'1 3.8
2017-Nov-14 12:30N 28°44' W 013°48'4 8.4
2017-Nov-14 12:00N 28°48' W 013°49'2 3.2
2017-Nov-14 11:19N 28°50' W 013°48'1 0.8
2017-Nov-14 10:36N 28°51' W 013°48'0 0.1
2017-Nov-14 10:28N 28°51' W 013°48'0 0.0
2017-Nov-14 08:31N 28°51' W 013°48'0 0.1
2017-Nov-14 08:23N 28°51' W 013°48'0 0.0
2017-Nov-14 07:52N 28°51' W 013°48'0 0.0
2017-Nov-14 07:13N 28°51' W 013°48'0 0.0
2017-Nov-14 06:46N 28°51' W 013°48'0 0.0
2017-Nov-14 06:29N 28°51' W 013°48'0 0.0
2017-Nov-14 06:00N 28°51' W 013°48'0 0.0
2017-Nov-14 05:25N 28°51' W 013°48'0 0.0
2017-Nov-14 04:59N 28°51' W 013°48'0 0.0
2017-Nov-14 04:26N 28°51' W 013°48'0 0.0
2017-Nov-14 04:00N 28°51' W 013°48'0 0.0
2017-Nov-14 03:20N 28°51' W 013°48'0 0.0
2017-Nov-14 03:00N 28°51' W 013°48'0 0.0
2017-Nov-14 02:30N 28°51' W 013°48'0 0.0
2017-Nov-14 01:57N 28°51' W 013°48'0 0.0
2017-Nov-14 01:29N 28°51' W 013°48'0 0.0
2017-Nov-14 00:20N 28°51' W 013°48'0 0.0
2017-Nov-13 23:42N 28°51' W 013°48'6 0.3
2017-Nov-13 01:50N 28°55' W 013°42'0 0.0
2017-Nov-13 01:30N 28°55' W 013°42'0 0.0
2017-Nov-13 01:00N 28°55' W 013°42'0 0.0
2017-Nov-13 00:30N 28°55' W 013°42'0 0.0
2017-Nov-12 23:59N 28°55' W 013°42'0 0.0
2017-Nov-12 22:32N 28°55' W 013°42'0 0.0
2017-Nov-12 22:27N 28°55' W 013°42'0 0.0
2017-Nov-12 21:44N 28°55' W 013°42'0 0.0
2017-Nov-12 21:31N 28°55' W 013°42'0 0.0
2017-Nov-11 16:23N 28°55' W 013°42'0 0.0
2017-Nov-11 15:59N 28°55' W 013°42'0 0.0
2017-Nov-11 15:25N 28°55' W 013°42'0 0.0
2017-Nov-11 09:55N 28°55' W 013°42'0 0.0
2017-Nov-11 09:28N 28°55' W 013°42'0 0.0
2017-Nov-11 08:47N 28°55' W 013°42'0 0.0
2017-Nov-11 08:30N 28°55' W 013°42'0 0.0
2017-Nov-11 07:58N 28°55' W 013°42'0 0.0
2017-Nov-11 07:30N 28°55' W 013°42'0 0.0
2017-Nov-11 07:00N 28°55' W 013°42'0 0.0
2017-Nov-11 06:30N 28°55' W 013°42'0 0.0
2017-Nov-11 06:00N 28°55' W 013°42'0 0.0
2017-Nov-11 05:30N 28°55' W 013°42'0 0.0
2017-Nov-11 05:00N 28°55' W 013°42'0 0.0
2017-Nov-11 04:30N 28°55' W 013°42'0 0.0
2017-Nov-11 03:58N 28°55' W 013°42'0 0.0
2017-Nov-11 03:30N 28°55' W 013°42'0 0.0
2017-Nov-11 02:56N 28°55' W 013°42'0 0.0
2017-Nov-11 02:30N 28°55' W 013°42'0 0.0
2017-Nov-11 01:59N 28°55' W 013°42'0 0.0
2017-Nov-11 01:25N 28°55' W 013°42'0 0.0
2017-Nov-11 01:00N 28°55' W 013°42'0 0.0
2017-Nov-11 00:30N 28°55' W 013°42'0 0.0
2017-Nov-11 00:00N 28°55' W 013°42'0 0.0
2017-Nov-10 23:25N 28°55' W 013°42'0 0.0
2017-Nov-10 22:58N 28°55' W 013°42'0 0.0
2017-Nov-10 22:30N 28°55' W 013°42'0 0.0
2017-Nov-10 22:00N 28°55' W 013°42'0 0.0
2017-Nov-10 21:30N 28°55' W 013°42'0 0.0
2017-Nov-10 21:00N 28°55' W 013°42'0 0.0
2017-Nov-10 20:30N 28°55' W 013°42'0 0.0
2017-Nov-10 19:39N 28°55' W 013°42'0 0.0
2017-Nov-10 11:07N 28°55' W 013°42'0 0.0
2017-Nov-10 11:00N 28°55' W 013°42'0 0.0
2017-Nov-10 09:07N 28°55' W 013°42'0 0.0
2017-Nov-10 09:00N 28°55' W 013°42'0 0.0
2017-Nov-10 08:20N 28°55' W 013°42'0 0.0
2017-Nov-10 08:00N 28°55' W 013°42'0 0.0
2017-Nov-10 07:30N 28°55' W 013°42'0 0.0
2017-Nov-10 07:00N 28°55' W 013°42'0 0.0
2017-Nov-10 06:18N 28°55' W 013°42'0 0.0
2017-Nov-10 05:59N 28°55' W 013°42'0 0.0
2017-Nov-10 05:28N 28°55' W 013°42'0 0.0
2017-Nov-10 05:00N 28°55' W 013°42'0 0.0
2017-Nov-10 04:30N 28°55' W 013°42'0 0.0
2017-Nov-10 03:59N 28°55' W 013°42'0 0.0
2017-Nov-10 03:30N 28°55' W 013°42'0 0.0
2017-Nov-10 03:00N 28°55' W 013°42'0 0.0
2017-Nov-10 02:28N 28°55' W 013°42'0 0.0
2017-Nov-10 02:00N 28°55' W 013°42'0 0.0
2017-Nov-09 09:07N 28°55' W 013°42'1 7.2
2017-Nov-09 09:00N 28°55' W 013°42'510.0
2017-Nov-09 08:30N 28°55' W 013°36'510.2
2017-Nov-09 08:00N 28°57' W 013°31'5 9.7
2017-Nov-09 07:30N 29°00' W 013°27'3 6.7
2017-Nov-09 07:01N 29°03' W 013°25'  
Track history (hours):
 
Tides and Currents Weather Stations Pressure Air Temp Water Temp Dewpoint Dewpoint Depression Visibility Wind Speed Wind Dir Waves Ship Positions

Windrose Of Amsterda

Last reported at 2017-Nov-16 23:48 UTC. Time now 2017-Nov-24 03:49 UTC.
Position N 27°44' W 015°09'.

Length 47 m; draft 4.3 m.

Type: Sailing vessel. MMSI: 249270000.

Date/timePositionNaut miles runAvg speedWind from/ knotsBaromVisibWave heightAir tempDewpointWater temp
2017-Nov-16 23:48N 27°44' W 015°09'3 8.0
2017-Nov-16 23:29N 27°45' W 015°06'4 8.2
2017-Nov-16 22:59N 27°47' W 015°02'5 8.4
2017-Nov-16 22:25N 27°51' W 014°59'4 8.6
2017-Nov-16 22:00N 27°54' W 014°57'4 8.8
2017-Nov-16 21:30N 27°57' W 014°54'4 8.8
2017-Nov-16 21:00N 28°01' W 014°51'4 8.7
2017-Nov-16 20:30N 28°04' W 014°48'4 8.5
2017-Nov-16 20:00N 28°07' W 014°45'4 9.0
2017-Nov-16 19:30N 28°11' W 014°41'4 8.7
2017-Nov-16 19:00N 28°14' W 014°38'4 8.5
2017-Nov-16 18:30N 28°17' W 014°35'5 8.5
2017-Nov-16 17:57N 28°21' W 014°31'5 7.5
2017-Nov-16 17:18N 28°24' W 014°27'2 7.9
2017-Nov-16 17:00N 28°26' W 014°25'39 8.0
2017-Nov-16 12:10N 28°49' W 013°50'1 3.0
2017-Nov-16 11:53N 28°49' W 013°49'3 9.1
2017-Nov-16 11:30N 28°50' W 013°46'4 0.1
2017-Nov-15 01:13N 28°54' W 013°43'3 9.9
2017-Nov-15 00:53N 28°51' W 013°45'4 9.8
2017-Nov-15 00:26N 28°47' W 013°46'4 8.8
2017-Nov-15 00:00N 28°44' W 013°49'1 0.0
2017-Nov-14 12:54N 28°44' W 013°49'1 3.8
2017-Nov-14 12:30N 28°44' W 013°48'4 8.4
2017-Nov-14 12:00N 28°48' W 013°49'2 3.2
2017-Nov-14 11:19N 28°50' W 013°48'1 0.8
2017-Nov-14 10:36N 28°51' W 013°48'0 0.1
2017-Nov-14 10:28N 28°51' W 013°48'0 0.0
2017-Nov-14 08:31N 28°51' W 013°48'0 0.1
2017-Nov-14 08:23N 28°51' W 013°48'0 0.0
2017-Nov-14 07:52N 28°51' W 013°48'0 0.0
2017-Nov-14 07:13N 28°51' W 013°48'0 0.0
2017-Nov-14 06:46N 28°51' W 013°48'0 0.0
2017-Nov-14 06:29N 28°51' W 013°48'0 0.0
2017-Nov-14 06:00N 28°51' W 013°48'0 0.0
2017-Nov-14 05:25N 28°51' W 013°48'0 0.0
2017-Nov-14 04:59N 28°51' W 013°48'0 0.0
2017-Nov-14 04:26N 28°51' W 013°48'0 0.0
2017-Nov-14 04:00N 28°51' W 013°48'0 0.0
2017-Nov-14 03:20N 28°51' W 013°48'0 0.0
2017-Nov-14 03:00N 28°51' W 013°48'0 0.0
2017-Nov-14 02:30N 28°51' W 013°48'0 0.0
2017-Nov-14 01:57N 28°51' W 013°48'0 0.0
2017-Nov-14 01:29N 28°51' W 013°48'0 0.0
2017-Nov-14 00:20N 28°51' W 013°48'0 0.0
2017-Nov-13 23:42N 28°51' W 013°48'6 0.3
2017-Nov-13 01:50N 28°55' W 013°42'0 0.0
2017-Nov-13 01:30N 28°55' W 013°42'0 0.0
2017-Nov-13 01:00N 28°55' W 013°42'0 0.0
2017-Nov-13 00:30N 28°55' W 013°42'0 0.0
2017-Nov-12 23:59N 28°55' W 013°42'0 0.0
2017-Nov-12 22:32N 28°55' W 013°42'0 0.0
2017-Nov-12 22:27N 28°55' W 013°42'0 0.0
2017-Nov-12 21:44N 28°55' W 013°42'0 0.0
2017-Nov-12 21:31N 28°55' W 013°42'0 0.0
2017-Nov-11 16:23N 28°55' W 013°42'0 0.0
2017-Nov-11 15:59N 28°55' W 013°42'0 0.0
2017-Nov-11 15:25N 28°55' W 013°42'0 0.0
2017-Nov-11 09:55N 28°55' W 013°42'0 0.0
2017-Nov-11 09:28N 28°55' W 013°42'0 0.0
2017-Nov-11 08:47N 28°55' W 013°42'0 0.0
2017-Nov-11 08:30N 28°55' W 013°42'0 0.0
2017-Nov-11 07:58N 28°55' W 013°42'0 0.0
2017-Nov-11 07:30N 28°55' W 013°42'0 0.0
2017-Nov-11 07:00N 28°55' W 013°42'0 0.0
2017-Nov-11 06:30N 28°55' W 013°42'0 0.0
2017-Nov-11 06:00N 28°55' W 013°42'0 0.0
2017-Nov-11 05:30N 28°55' W 013°42'0 0.0
2017-Nov-11 05:00N 28°55' W 013°42'0 0.0
2017-Nov-11 04:30N 28°55' W 013°42'0 0.0
2017-Nov-11 03:58N 28°55' W 013°42'0 0.0
2017-Nov-11 03:30N 28°55' W 013°42'0 0.0
2017-Nov-11 02:56N 28°55' W 013°42'0 0.0
2017-Nov-11 02:30N 28°55' W 013°42'0 0.0
2017-Nov-11 01:59N 28°55' W 013°42'0 0.0
2017-Nov-11 01:25N 28°55' W 013°42'0 0.0
2017-Nov-11 01:00N 28°55' W 013°42'0 0.0
2017-Nov-11 00:30N 28°55' W 013°42'0 0.0
2017-Nov-11 00:00N 28°55' W 013°42'0 0.0
2017-Nov-10 23:25N 28°55' W 013°42'0 0.0
2017-Nov-10 22:58N 28°55' W 013°42'0 0.0
2017-Nov-10 22:30N 28°55' W 013°42'0 0.0
2017-Nov-10 22:00N 28°55' W 013°42'0 0.0
2017-Nov-10 21:30N 28°55' W 013°42'0 0.0
2017-Nov-10 21:00N 28°55' W 013°42'0 0.0
2017-Nov-10 20:30N 28°55' W 013°42'0 0.0
2017-Nov-10 19:39N 28°55' W 013°42'0 0.0
2017-Nov-10 11:07N 28°55' W 013°42'0 0.0
2017-Nov-10 11:00N 28°55' W 013°42'0 0.0
2017-Nov-10 09:07N 28°55' W 013°42'0 0.0
2017-Nov-10 09:00N 28°55' W 013°42'0 0.0
2017-Nov-10 08:20N 28°55' W 013°42'0 0.0
2017-Nov-10 08:00N 28°55' W 013°42'0 0.0
2017-Nov-10 07:30N 28°55' W 013°42'0 0.0
2017-Nov-10 07:00N 28°55' W 013°42'0 0.0
2017-Nov-10 06:18N 28°55' W 013°42'0 0.0
2017-Nov-10 05:59N 28°55' W 013°42'0 0.0
2017-Nov-10 05:28N 28°55' W 013°42'0 0.0
2017-Nov-10 05:00N 28°55' W 013°42'0 0.0
2017-Nov-10 04:30N 28°55' W 013°42'0 0.0
2017-Nov-10 03:59N 28°55' W 013°42'0 0.0
2017-Nov-10 03:30N 28°55' W 013°42'0 0.0
2017-Nov-10 03:00N 28°55' W 013°42'0 0.0
2017-Nov-10 02:28N 28°55' W 013°42'0 0.0
2017-Nov-10 02:00N 28°55' W 013°42'0 0.0
2017-Nov-09 09:07N 28°55' W 013°42'1 7.2
2017-Nov-09 09:00N 28°55' W 013°42'510.0
2017-Nov-09 08:30N 28°55' W 013°36'510.2
2017-Nov-09 08:00N 28°57' W 013°31'5 9.7
2017-Nov-09 07:30N 29°00' W 013°27'3 6.7
2017-Nov-09 07:01N 29°03' W 013°25'  

Dump ship's entire track history